Time;durP1;ratioP1;P1;durP2;ratioP2;P2;SDS_P1;SDS_P2;PMS_P1;PMS_P2;Temp;Humidity;BMP_temperature;BMP_pressure;BME280_temperature;BME280_humidity;BME280_pressure;Samples;Min_cycle;Max_cycle;Signal;HPM_P1;HPM_P2
2021/07/23 00:00:25;;;;;;;;;;;;;;;;;;1446293;41;7017;-65
2021/07/23 00:01:27;;;;;;;;;;;;;;;;;;1445783;41;7032;-65
2021/07/23 00:02:29;;;;;;;;;;;;;;;;;;1446028;41;7008;-64
2021/07/23 00:03:32;;;;;;;;;;;;;;;;;;1446259;41;7008;-65
2021/07/23 00:04:34;;;;;;;;;;;;;;;;;;1446562;41;7240;-65
2021/07/23 00:05:37;;;;;;;;;;;;;;;;;;1446135;41;7017;-65
2021/07/23 00:06:39;;;;;;;;;;;;;;;;;;1445999;41;7004;-64
2021/07/23 00:07:42;;;;;;;;;;;;;;;;;;1446041;41;7052;-64
2021/07/23 00:08:44;;;;;;;;;;;;;;;;;;1445965;41;7028;-65
2021/07/23 00:09:46;;;;;;;;;;;;;;;;;;1446034;41;7040;-65
2021/07/23 00:10:49;;;;;;;;;;;;;;;;;;1446352;41;7013;-65
2021/07/23 00:11:51;;;;;;;;;;;;;;;;;;1446202;41;7028;-64
2021/07/23 00:12:53;;;;;;;;;;;;;;;;;;1446641;41;7008;-64
2021/07/23 00:13:56;;;;;;;;;;;;;;;;;;1445420;41;7035;-65
2021/07/23 00:14:58;;;;;;;;;;;;;;;;;;1446153;41;7004;-64
2021/07/23 00:16:01;;;;;;;;;;;;;;;;;;1446267;41;7012;-64
2021/07/23 00:17:03;;;;;;;;;;;;;;;;;;1446281;41;7032;-66
2021/07/23 00:18:06;;;;;;;;;;;;;;;;;;1446332;41;7008;-67
2021/07/23 00:19:08;;;;;;;;;;;;;;;;;;1446561;41;7004;-67
2021/07/23 00:20:11;;;;;;;;;;;;;;;;;;1445366;41;7120;-66
2021/07/23 00:21:13;;;;;;;;;;;;;;;;;;1446101;41;7020;-67
2021/07/23 00:22:15;;;;;;;;;;;;;;;;;;1445882;41;7004;-66
2021/07/23 00:23:18;;;;;;;;;;;;;;;;;;1445558;41;7004;-65
2021/07/23 00:24:20;;;;;;;;;;;;;;;;;;1446091;41;7004;-67
2021/07/23 00:25:23;;;;;;;;;;;;;;;;;;1446247;41;7041;-67
2021/07/23 00:26:25;;;;;;;;;;;;;;;;;;1445011;41;7151;-66
2021/07/23 00:27:28;;;;;;;;;;;;;;;;;;1445700;41;7040;-67
2021/07/23 00:28:30;;;;;;;;;;;;;;;;;;1445673;41;7036;-66
2021/07/23 00:29:32;;;;;;;;;;;;;;;;;;1445849;41;7013;-67
2021/07/23 00:30:35;;;;;;;;;;;;;;;;;;1446019;41;7044;-67
2021/07/23 00:31:37;;;;;;;;;;;;;;;;;;1446200;41;7001;-67
2021/07/23 00:32:41;;;;;;;;;;;;;;;;;;1445457;41;7224;-66
2021/07/23 00:33:43;;;;;;;;;;;;;;;;;;1443063;41;7115;-67
2021/07/23 00:34:45;;;;;;;;;;;;;;;;;;1444777;41;7017;-67
2021/07/23 00:35:48;;;;;;;;;;;;;;;;;;1445534;41;7048;-67
2021/07/23 00:36:50;;;;;;;;;;;;;;;;;;1445757;41;7021;-66
2021/07/23 00:37:53;;;;;;;;;;;;;;;;;;1446439;41;7017;-67
2021/07/23 00:38:55;;;;;;;;;;;;;;;;;;1446298;41;7049;-66
2021/07/23 00:39:57;;;;;;;;;;;;;;;;;;1448847;41;7012;-66
2021/07/23 00:41:00;;;;;;;;;;;;;;;;;;1448761;41;7019;-66
2021/07/23 00:42:02;;;;;;;;;;;;;;;;;;1446099;41;7945;-66
2021/07/23 00:43:05;;;;;;;;;;;;;;;;;;1445893;41;7004;-66
2021/07/23 00:44:07;;;;;;;;;;;;;;;;;;1446082;41;7004;-66
2021/07/23 00:45:10;;;;;;;;;;;;;;;;;;1446389;41;7008;-66
2021/07/23 00:46:13;;;;;;;;;;;;;;;;;;1446514;41;7035;-66
2021/07/23 00:47:19;;;;;;;;;;;;;;;;;;1445910;41;7417;-66
2021/07/23 00:48:22;;;;;;;;;;;;;;;;;;1446663;41;7004;-66
2021/07/23 00:49:25;;;;;;;;;;;;;;;;;;1446551;41;7040;-67
2021/07/23 00:50:32;;;;;;;;;;;;;;;;;;1446210;41;7050;-67
2021/07/23 00:51:34;;;;;;;;;;;;;;;;;;1448924;41;7244;-66
2021/07/23 00:52:37;;;;;;;;;;;;;;;;;;1450059;41;7198;-67
2021/07/23 00:53:39;;;;;;;;;;;;;;;;;;1450130;41;7021;-67
2021/07/23 00:54:43;;;;;;;;;;;;;;;;;;1449889;41;7000;-66
2021/07/23 00:55:52;;;;;;;;;;;;;;;;;;1449847;41;7912;-66
2021/07/23 00:56:56;;;;;;;;;;;;;;;;;;1449668;41;7028;-67
2021/07/23 00:58:00;;;;;;;;;;;;;;;;;;1450088;41;7921;-66
2021/07/23 00:59:03;;;;;;;;;;;;;;;;;;1450519;41;7127;-67
2021/07/23 01:00:06;;;;;;;;;;;;;;;;;;1449981;41;7008;-67
2021/07/23 01:01:09;;;;;;;;;;;;;;;;;;1449913;41;7044;-67
2021/07/23 01:02:12;;;;;;;;;;;;;;;;;;1450300;41;7036;-67
2021/07/23 01:03:15;;;;;;;;;;;;;;;;;;1450070;41;7008;-67
2021/07/23 01:04:18;;;;;;;;;;;;;;;;;;1449692;41;7031;-66
2021/07/23 01:05:21;;;;;;;;;;;;;;;;;;1449400;41;7231;-66
2021/07/23 01:06:23;;;;;;;;;;;;;;;;;;1449346;40;7036;-67
2021/07/23 01:07:26;;;;;;;;;;;;;;;;;;1449516;41;7039;-67
2021/07/23 01:08:28;;;;;;;;;;;;;;;;;;1450635;41;7032;-67
2021/07/23 01:09:31;;;;;;;;;;;;;;;;;;1450601;41;7045;-66
2021/07/23 01:10:37;;;;;;;;;;;;;;;;;;1450846;41;7004;-66
2021/07/23 01:11:40;;;;;;;;;;;;;;;;;;1450213;41;7028;-67
2021/07/23 01:12:42;;;;;;;;;;;;;;;;;;1450600;41;7008;-66
2021/07/23 01:13:45;;;;;;;;;;;;;;;;;;1450311;41;7929;-66
2021/07/23 01:14:48;;;;;;;;;;;;;;;;;;1450688;41;7988;-66
2021/07/23 01:15:50;;;;;;;;;;;;;;;;;;1450703;41;7928;-66
2021/07/23 01:16:53;;;;;;;;;;;;;;;;;;1450893;41;7019;-67
2021/07/23 01:17:56;;;;;;;;;;;;;;;;;;1450373;41;7036;-67
2021/07/23 01:18:58;;;;;;;;;;;;;;;;;;1450470;41;7032;-66
2021/07/23 01:20:08;;;;;;;;;;;;;;;;;;1450494;41;7038;-67
2021/07/23 01:21:12;;;;;;;;;;;;;;;;;;1450899;41;7056;-67
2021/07/23 01:22:16;;;;;;;;;;;;;;;;;;1450200;41;7110;-67
2021/07/23 01:23:28;;;;;;;;;;;;;;;;;;1450497;41;7000;-66
2021/07/23 01:24:31;;;;;;;;;;;;;;;;;;1450107;41;7000;-67
2021/07/23 01:25:35;;;;;;;;;;;;;;;;;;1450010;41;7105;-66
2021/07/23 01:26:37;;;;;;;;;;;;;;;;;;1450337;41;7009;-67
2021/07/23 01:27:46;;;;;;;;;;;;;;;;;;1450395;41;7009;-67
2021/07/23 01:28:49;;;;;;;;;;;;;;;;;;1449829;41;7004;-66
2021/07/23 01:29:51;;;;;;;;;;;;;;;;;;1450253;41;7909;-67
2021/07/23 01:30:54;;;;;;;;;;;;;;;;;;1450062;41;7949;-67
2021/07/23 01:31:56;;;;;;;;;;;;;;;;;;1450477;41;7076;-67
2021/07/23 01:32:59;;;;;;;;;;;;;;;;;;1450394;41;7037;-66
2021/07/23 01:34:01;;;;;;;;;;;;;;;;;;1449889;41;7013;-67
2021/07/23 01:35:04;;;;;;;;;;;;;;;;;;1449934;41;7040;-67
2021/07/23 01:36:07;;;;;;;;;;;;;;;;;;1450118;41;7276;-66
2021/07/23 01:37:09;;;;;;;;;;;;;;;;;;1450200;41;7012;-66
2021/07/23 01:38:16;;;;;;;;;;;;;;;;;;1450595;41;7004;-66
2021/07/23 01:39:20;;;;;;;;;;;;;;;;;;1449941;41;7000;-67
2021/07/23 01:40:23;;;;;;;;;;;;;;;;;;1449562;41;6984;-66
2021/07/23 01:41:26;;;;;;;;;;;;;;;;;;1450008;41;7039;-67
2021/07/23 01:42:30;;;;;;;;;;;;;;;;;;1450554;41;7059;-67
2021/07/23 01:43:33;;;;;;;;;;;;;;;;;;1450163;41;7188;-66
2021/07/23 01:44:35;;;;;;;;;;;;;;;;;;1450665;41;7008;-67
2021/07/23 01:45:37;;;;;;;;;;;;;;;;;;1450356;41;7224;-67
2021/07/23 01:46:40;;;;;;;;;;;;;;;;;;1450635;41;7036;-66
2021/07/23 01:47:42;;;;;;;;;;;;;;;;;;1450243;41;7004;-67
2021/07/23 01:48:45;;;;;;;;;;;;;;;;;;1449789;41;7965;-66
2021/07/23 01:49:47;;;;;;;;;;;;;;;;;;1450455;41;8841;-66
2021/07/23 01:50:50;;;;;;;;;;;;;;;;;;1450385;41;7000;-66
2021/07/23 01:51:52;;;;;;;;;;;;;;;;;;1450189;41;7060;-67
2021/07/23 01:52:54;;;;;;;;;;;;;;;;;;1450270;41;7000;-66
2021/07/23 01:53:57;;;;;;;;;;;;;;;;;;1450725;41;7185;-67
2021/07/23 01:54:59;;;;;;;;;;;;;;;;;;1450392;41;7040;-67
2021/07/23 01:56:02;;;;;;;;;;;;;;;;;;1450618;41;7000;-66
2021/07/23 01:57:04;;;;;;;;;;;;;;;;;;1450582;41;7130;-67
2021/07/23 01:58:07;;;;;;;;;;;;;;;;;;1450361;41;7047;-67
2021/07/23 01:59:09;;;;;;;;;;;;;;;;;;1450269;41;8008;-66
2021/07/23 02:00:12;;;;;;;;;;;;;;;;;;1450347;41;7044;-67
2021/07/23 02:01:14;;;;;;;;;;;;;;;;;;1450558;41;7884;-67
2021/07/23 02:02:17;;;;;;;;;;;;;;;;;;1450473;41;7012;-67
2021/07/23 02:03:19;;;;;;;;;;;;;;;;;;1450587;41;8051;-67
2021/07/23 02:04:22;;;;;;;;;;;;;;;;;;1450708;41;7039;-66
2021/07/23 02:05:25;;;;;;;;;;;;;;;;;;1451058;41;7036;-66
2021/07/23 02:06:27;;;;;;;;;;;;;;;;;;1450138;41;7020;-67
2021/07/23 02:07:30;;;;;;;;;;;;;;;;;;1450027;41;7016;-66
2021/07/23 02:08:32;;;;;;;;;;;;;;;;;;1450373;41;7044;-67
2021/07/23 02:09:34;;;;;;;;;;;;;;;;;;1450517;41;7001;-66
2021/07/23 02:10:37;;;;;;;;;;;;;;;;;;1450040;41;7184;-67
2021/07/23 02:11:39;;;;;;;;;;;;;;;;;;1450506;41;7178;-66
2021/07/23 02:12:42;;;;;;;;;;;;;;;;;;1450187;41;7004;-66
2021/07/23 02:13:44;;;;;;;;;;;;;;;;;;1450312;41;7020;-66
2021/07/23 02:14:47;;;;;;;;;;;;;;;;;;1450486;41;7973;-66
2021/07/23 02:15:50;;;;;;;;;;;;;;;;;;1450323;41;7009;-66
2021/07/23 02:16:52;;;;;;;;;;;;;;;;;;1450459;41;7245;-66
2021/07/23 02:17:54;;;;;;;;;;;;;;;;;;1450359;40;7213;-66
2021/07/23 02:18:57;;;;;;;;;;;;;;;;;;1450493;41;7036;-66
2021/07/23 02:20:02;;;;;;;;;;;;;;;;;;1450708;41;7032;-67
2021/07/23 02:21:05;;;;;;;;;;;;;;;;;;1450621;41;7012;-66
2021/07/23 02:22:08;;;;;;;;;;;;;;;;;;1450486;41;7044;-66
2021/07/23 02:23:10;;;;;;;;;;;;;;;;;;1450290;41;7060;-67
2021/07/23 02:24:13;;;;;;;;;;;;;;;;;;1449867;41;7000;-66
2021/07/23 02:25:15;;;;;;;;;;;;;;;;;;1449853;41;7052;-66
2021/07/23 02:26:18;;;;;;;;;;;;;;;;;;1450078;41;7017;-66
2021/07/23 02:27:21;;;;;;;;;;;;;;;;;;1450130;41;7008;-67
2021/07/23 02:28:23;;;;;;;;;;;;;;;;;;1450254;41;7008;-66
2021/07/23 02:29:26;;;;;;;;;;;;;;;;;;1449710;41;7025;-66
2021/07/23 02:30:28;;;;;;;;;;;;;;;;;;1449985;41;7004;-67
2021/07/23 02:31:31;;;;;;;;;;;;;;;;;;1450014;41;7004;-66
2021/07/23 02:32:33;;;;;;;;;;;;;;;;;;1449982;41;7258;-67
2021/07/23 02:33:36;;;;;;;;;;;;;;;;;;1450113;41;7004;-67
2021/07/23 02:34:38;;;;;;;;;;;;;;;;;;1450235;41;7904;-66
2021/07/23 02:35:40;;;;;;;;;;;;;;;;;;1449746;41;7004;-67
2021/07/23 02:36:43;;;;;;;;;;;;;;;;;;1450041;41;7012;-66
2021/07/23 02:37:46;;;;;;;;;;;;;;;;;;1450674;41;7126;-67
2021/07/23 02:38:48;;;;;;;;;;;;;;;;;;1450601;41;7937;-67
2021/07/23 02:39:50;;;;;;;;;;;;;;;;;;1450025;41;7235;-67
2021/07/23 02:40:55;;;;;;;;;;;;;;;;;;1449432;41;7000;-67
2021/07/23 02:41:57;;;;;;;;;;;;;;;;;;1450280;41;7000;-66
2021/07/23 02:42:59;;;;;;;;;;;;;;;;;;1450412;41;7012;-67
2021/07/23 02:44:02;;;;;;;;;;;;;;;;;;1450319;41;7084;-67
2021/07/23 02:45:05;;;;;;;;;;;;;;;;;;1450754;41;7014;-66
2021/07/23 02:46:07;;;;;;;;;;;;;;;;;;1449954;41;7905;-67
2021/07/23 02:47:10;;;;;;;;;;;;;;;;;;1449796;41;7012;-66
2021/07/23 02:48:12;;;;;;;;;;;;;;;;;;1450353;41;7040;-65
2021/07/23 02:49:15;;;;;;;;;;;;;;;;;;1450703;41;7032;-64
2021/07/23 02:50:19;;;;;;;;;;;;;;;;;;1450662;41;7032;-64
2021/07/23 02:51:22;;;;;;;;;;;;;;;;;;1450496;41;7328;-65
2021/07/23 02:52:24;;;;;;;;;;;;;;;;;;1450395;41;7000;-64
2021/07/23 02:53:26;;;;;;;;;;;;;;;;;;1450676;41;7004;-65
2021/07/23 02:54:29;;;;;;;;;;;;;;;;;;1450471;41;7000;-65
2021/07/23 02:55:32;;;;;;;;;;;;;;;;;;1450468;41;7004;-65
2021/07/23 02:56:35;;;;;;;;;;;;;;;;;;1450592;41;7004;-65
2021/07/23 02:57:37;;;;;;;;;;;;;;;;;;1450038;41;7213;-64
2021/07/23 02:58:42;;;;;;;;;;;;;;;;;;1450047;41;7217;-64
2021/07/23 02:59:46;;;;;;;;;;;;;;;;;;1450798;41;7008;-64
2021/07/23 03:00:49;;;;;;;;;;;;;;;;;;1449807;41;7015;-65
2021/07/23 03:01:51;;;;;;;;;;;;;;;;;;1450154;41;7036;-64
2021/07/23 03:02:54;;;;;;;;;;;;;;;;;;1450340;41;7913;-65
2021/07/23 03:03:57;;;;;;;;;;;;;;;;;;1450248;41;7044;-65
2021/07/23 03:04:59;;;;;;;;;;;;;;;;;;1450153;41;7040;-65
2021/07/23 03:06:02;;;;;;;;;;;;;;;;;;1449631;41;7000;-65
2021/07/23 03:07:04;;;;;;;;;;;;;;;;;;1450213;41;7001;-64
2021/07/23 03:08:08;;;;;;;;;;;;;;;;;;1450348;41;7013;-66
2021/07/23 03:09:11;;;;;;;;;;;;;;;;;;1450568;41;7220;-66
2021/07/23 03:10:13;;;;;;;;;;;;;;;;;;1450659;41;7000;-66
2021/07/23 03:11:15;;;;;;;;;;;;;;;;;;1450923;41;7040;-66
2021/07/23 03:12:18;;;;;;;;;;;;;;;;;;1450507;41;7000;-67
2021/07/23 03:13:20;;;;;;;;;;;;;;;;;;1450240;41;7040;-67
2021/07/23 03:14:23;;;;;;;;;;;;;;;;;;1450640;41;7931;-67
2021/07/23 03:15:25;;;;;;;;;;;;;;;;;;1449798;41;7016;-66
2021/07/23 03:16:28;;;;;;;;;;;;;;;;;;1449812;41;7039;-66
2021/07/23 03:17:30;;;;;;;;;;;;;;;;;;1450332;41;7063;-67
2021/07/23 03:18:32;;;;;;;;;;;;;;;;;;1450328;41;7216;-67
2021/07/23 03:19:36;;;;;;;;;;;;;;;;;;1449822;41;6996;-66
2021/07/23 03:20:38;;;;;;;;;;;;;;;;;;1450926;41;7028;-67
2021/07/23 03:21:41;;;;;;;;;;;;;;;;;;1449852;41;7105;-67
2021/07/23 03:22:43;;;;;;;;;;;;;;;;;;1449969;41;8017;-66
2021/07/23 03:23:45;;;;;;;;;;;;;;;;;;1450010;41;7209;-67
2021/07/23 03:24:48;;;;;;;;;;;;;;;;;;1450575;41;7000;-67
2021/07/23 03:25:50;;;;;;;;;;;;;;;;;;1450144;41;7762;-67
2021/07/23 03:26:53;;;;;;;;;;;;;;;;;;1449706;41;7964;-66
2021/07/23 03:27:55;;;;;;;;;;;;;;;;;;1450078;41;7008;-66
2021/07/23 03:28:59;;;;;;;;;;;;;;;;;;1450066;41;6997;-67
2021/07/23 03:30:06;;;;;;;;;;;;;;;;;;1445697;41;7035;-67
2021/07/23 03:31:12;;;;;;;;;;;;;;;;;;1445553;41;7429;-67
2021/07/23 03:32:15;;;;;;;;;;;;;;;;;;1449915;41;7008;-67
2021/07/23 03:33:17;;;;;;;;;;;;;;;;;;1449559;41;7059;-66
2021/07/23 03:34:20;;;;;;;;;;;;;;;;;;1449602;41;7037;-67
2021/07/23 03:35:22;;;;;;;;;;;;;;;;;;1449897;41;7017;-66
2021/07/23 03:36:25;;;;;;;;;;;;;;;;;;1450039;41;7032;-67
2021/07/23 03:37:27;;;;;;;;;;;;;;;;;;1450607;41;7008;-67
2021/07/23 03:38:29;;;;;;;;;;;;;;;;;;1449881;41;7565;-67
2021/07/23 03:39:32;;;;;;;;;;;;;;;;;;1449134;41;7012;-67
2021/07/23 03:40:34;;;;;;;;;;;;;;;;;;1449510;41;7016;-66
2021/07/23 03:41:37;;;;;;;;;;;;;;;;;;1450330;41;7042;-66
2021/07/23 03:42:39;;;;;;;;;;;;;;;;;;1450697;41;7221;-66
2021/07/23 03:43:42;;;;;;;;;;;;;;;;;;1450521;41;7008;-67
2021/07/23 03:44:46;;;;;;;;;;;;;;;;;;1450508;41;7047;-66
2021/07/23 03:45:48;;;;;;;;;;;;;;;;;;1450564;41;7008;-66
2021/07/23 03:46:51;;;;;;;;;;;;;;;;;;1450814;41;7028;-66
2021/07/23 03:47:53;;;;;;;;;;;;;;;;;;1450411;41;7004;-67
2021/07/23 03:48:56;;;;;;;;;;;;;;;;;;1450149;41;7004;-67
2021/07/23 03:49:59;;;;;;;;;;;;;;;;;;1450177;41;6996;-67
2021/07/23 03:51:01;;;;;;;;;;;;;;;;;;1450646;41;7213;-66
2021/07/23 03:52:03;;;;;;;;;;;;;;;;;;1450025;41;7013;-67
2021/07/23 03:53:06;;;;;;;;;;;;;;;;;;1449871;41;7009;-66
2021/07/23 03:54:08;;;;;;;;;;;;;;;;;;1449907;41;7039;-66
2021/07/23 03:55:12;;;;;;;;;;;;;;;;;;1449630;41;8935;-67
2021/07/23 03:56:14;;;;;;;;;;;;;;;;;;1449691;41;7000;-66
2021/07/23 03:57:17;;;;;;;;;;;;;;;;;;1450693;41;7009;-66
2021/07/23 03:58:20;;;;;;;;;;;;;;;;;;1450486;41;7176;-66
2021/07/23 03:59:22;;;;;;;;;;;;;;;;;;1450277;41;7377;-66
2021/07/23 04:00:25;;;;;;;;;;;;;;;;;;1450478;41;7036;-67
2021/07/23 04:01:27;;;;;;;;;;;;;;;;;;1450234;41;7246;-67
2021/07/23 04:02:30;;;;;;;;;;;;;;;;;;1450469;41;7008;-67
2021/07/23 04:03:33;;;;;;;;;;;;;;;;;;1449823;41;7032;-65
2021/07/23 04:04:39;;;;;;;;;;;;;;;;;;1450396;41;8037;-64
2021/07/23 04:05:42;;;;;;;;;;;;;;;;;;1450412;41;7008;-64
2021/07/23 04:06:44;;;;;;;;;;;;;;;;;;1449524;41;7008;-65
2021/07/23 04:07:47;;;;;;;;;;;;;;;;;;1449608;41;7194;-67
2021/07/23 04:08:50;;;;;;;;;;;;;;;;;;1449572;41;7209;-66
2021/07/23 04:09:52;;;;;;;;;;;;;;;;;;1450374;41;7933;-66
2021/07/23 04:10:57;;;;;;;;;;;;;;;;;;1449882;41;7053;-66
2021/07/23 04:12:00;;;;;;;;;;;;;;;;;;1450470;41;7941;-64
2021/07/23 04:13:03;;;;;;;;;;;;;;;;;;1450499;41;7009;-64
2021/07/23 04:14:05;;;;;;;;;;;;;;;;;;1449813;41;7009;-65
2021/07/23 04:15:09;;;;;;;;;;;;;;;;;;1450172;41;7040;-65
2021/07/23 04:16:12;;;;;;;;;;;;;;;;;;1450381;41;7036;-65
2021/07/23 04:17:14;;;;;;;;;;;;;;;;;;1450250;41;7261;-64
2021/07/23 04:18:17;;;;;;;;;;;;;;;;;;1450803;41;7000;-64
2021/07/23 04:19:20;;;;;;;;;;;;;;;;;;1450162;41;7000;-64
2021/07/23 04:20:22;;;;;;;;;;;;;;;;;;1450161;41;7913;-64
2021/07/23 04:21:24;;;;;;;;;;;;;;;;;;1449727;41;7008;-65
2021/07/23 04:22:27;;;;;;;;;;;;;;;;;;1449498;41;7004;-64
2021/07/23 04:23:30;;;;;;;;;;;;;;;;;;1449029;41;7217;-65
2021/07/23 04:24:32;;;;;;;;;;;;;;;;;;1449974;41;7009;-65
2021/07/23 04:25:38;;;;;;;;;;;;;;;;;;1449868;41;7185;-64
2021/07/23 04:26:40;;;;;;;;;;;;;;;;;;1449881;41;7000;-65
2021/07/23 04:27:42;;;;;;;;;;;;;;;;;;1450119;41;7001;-64
2021/07/23 04:28:45;;;;;;;;;;;;;;;;;;1450056;41;7244;-64
2021/07/23 04:29:47;;;;;;;;;;;;;;;;;;1449843;41;7035;-65
2021/07/23 04:30:50;;;;;;;;;;;;;;;;;;1450048;41;7000;-64
2021/07/23 04:31:52;;;;;;;;;;;;;;;;;;1449999;41;7001;-64
2021/07/23 04:32:54;;;;;;;;;;;;;;;;;;1449717;41;7000;-64
2021/07/23 04:33:57;;;;;;;;;;;;;;;;;;1450003;41;7039;-64
2021/07/23 04:35:00;;;;;;;;;;;;;;;;;;1449828;41;7017;-64
2021/07/23 04:36:02;;;;;;;;;;;;;;;;;;1449956;41;7007;-64
2021/07/23 04:37:05;;;;;;;;;;;;;;;;;;1450011;41;7192;-64
2021/07/23 04:38:07;;;;;;;;;;;;;;;;;;1449876;41;7008;-64
2021/07/23 04:39:10;;;;;;;;;;;;;;;;;;1450202;41;7036;-64
2021/07/23 04:40:12;;;;;;;;;;;;;;;;;;1449270;41;7044;-64
2021/07/23 04:41:15;;;;;;;;;;;;;;;;;;1449540;41;7008;-64
2021/07/23 04:42:17;;;;;;;;;;;;;;;;;;1449691;41;7004;-64
2021/07/23 04:43:19;;;;;;;;;;;;;;;;;;1450062;41;7024;-64
2021/07/23 04:44:22;;;;;;;;;;;;;;;;;;1450077;41;7009;-64
2021/07/23 04:45:24;;;;;;;;;;;;;;;;;;1449965;41;7032;-64
2021/07/23 04:46:27;;;;;;;;;;;;;;;;;;1450476;41;7012;-64
2021/07/23 04:47:29;;;;;;;;;;;;;;;;;;1450391;41;7024;-64
2021/07/23 04:48:32;;;;;;;;;;;;;;;;;;1449972;41;7036;-64
2021/07/23 04:49:35;;;;;;;;;;;;;;;;;;1450294;41;7953;-64
2021/07/23 04:50:37;;;;;;;;;;;;;;;;;;1446004;41;7052;-64
2021/07/23 04:51:40;;;;;;;;;;;;;;;;;;1445058;41;8459;-64
2021/07/23 04:52:42;;;;;;;;;;;;;;;;;;1449930;41;7908;-64
2021/07/23 04:53:45;;;;;;;;;;;;;;;;;;1450409;41;7008;-64
2021/07/23 04:54:48;;;;;;;;;;;;;;;;;;1450377;41;7032;-64
2021/07/23 04:55:53;;;;;;;;;;;;;;;;;;1449303;41;7032;-65
2021/07/23 04:56:55;;;;;;;;;;;;;;;;;;1449957;41;7205;-64
2021/07/23 04:57:58;;;;;;;;;;;;;;;;;;1450218;41;7031;-64
2021/07/23 04:59:00;;;;;;;;;;;;;;;;;;1450489;41;7024;-64
2021/07/23 05:00:03;;;;;;;;;;;;;;;;;;1449932;41;7068;-64
2021/07/23 05:01:05;;;;;;;;;;;;;;;;;;1449722;41;7028;-64
2021/07/23 05:02:08;;;;;;;;;;;;;;;;;;1450331;41;7004;-64
2021/07/23 05:03:10;;;;;;;;;;;;;;;;;;1450121;41;7004;-64
2021/07/23 05:04:13;;;;;;;;;;;;;;;;;;1449941;41;7047;-64
2021/07/23 05:05:20;;;;;;;;;;;;;;;;;;1450088;41;7036;-64
2021/07/23 05:06:22;;;;;;;;;;;;;;;;;;1450621;41;6999;-64
2021/07/23 05:07:25;;;;;;;;;;;;;;;;;;1450614;41;7000;-64
2021/07/23 05:08:27;;;;;;;;;;;;;;;;;;1450569;41;7259;-64
2021/07/23 05:09:30;;;;;;;;;;;;;;;;;;1449768;41;7001;-64
2021/07/23 05:10:32;;;;;;;;;;;;;;;;;;1450229;41;7023;-64
2021/07/23 05:11:35;;;;;;;;;;;;;;;;;;1449955;41;8025;-65
2021/07/23 05:12:38;;;;;;;;;;;;;;;;;;1449399;41;7375;-64
2021/07/23 05:13:41;;;;;;;;;;;;;;;;;;1449628;41;7221;-64
2021/07/23 05:14:44;;;;;;;;;;;;;;;;;;1445757;41;7008;-64
2021/07/23 05:15:47;;;;;;;;;;;;;;;;;;1445515;41;7267;-64
2021/07/23 05:16:50;;;;;;;;;;;;;;;;;;1450546;41;7005;-64
2021/07/23 05:17:52;;;;;;;;;;;;;;;;;;1449856;41;7061;-64
2021/07/23 05:18:55;;;;;;;;;;;;;;;;;;1450259;41;7000;-64
2021/07/23 05:20:01;;;;;;;;;;;;;;;;;;1450400;41;7012;-64
2021/07/23 05:21:04;;;;;;;;;;;;;;;;;;1445512;41;7976;-65
2021/07/23 05:22:07;;;;;;;;;;;;;;;;;;1445897;41;7032;-65
2021/07/23 05:23:10;;;;;;;;;;;;;;;;;;1449932;41;7068;-65
2021/07/23 05:24:12;;;;;;;;;;;;;;;;;;1449896;41;7004;-65
2021/07/23 05:25:15;;;;;;;;;;;;;;;;;;1449802;41;7032;-65
2021/07/23 05:26:17;;;;;;;;;;;;;;;;;;1449654;41;7036;-64
2021/07/23 05:27:20;;;;;;;;;;;;;;;;;;1450149;41;7156;-64
2021/07/23 05:28:23;;;;;;;;;;;;;;;;;;1450001;41;6996;-64
2021/07/23 05:29:41;;;;;;;;;;;;;;;;;;1449607;41;8029;-64
2021/07/23 05:30:43;;;;;;;;;;;;;;;;;;1449826;41;7000;-65
2021/07/23 05:31:46;;;;;;;;;;;;;;;;;;1449980;41;7000;-65
2021/07/23 05:32:48;;;;;;;;;;;;;;;;;;1449412;41;7036;-65
2021/07/23 05:33:51;;;;;;;;;;;;;;;;;;1449565;41;7009;-65
2021/07/23 05:34:53;;;;;;;;;;;;;;;;;;1449700;41;7857;-64
2021/07/23 05:35:55;;;;;;;;;;;;;;;;;;1449933;41;7036;-65
2021/07/23 05:36:58;;;;;;;;;;;;;;;;;;1449699;41;7009;-64
2021/07/23 05:38:00;;;;;;;;;;;;;;;;;;1449933;41;6996;-64
2021/07/23 05:39:03;;;;;;;;;;;;;;;;;;1449911;41;7060;-65
2021/07/23 05:40:06;;;;;;;;;;;;;;;;;;1449354;41;7016;-64
2021/07/23 05:41:11;;;;;;;;;;;;;;;;;;1448890;41;8117;-64
2021/07/23 05:42:14;;;;;;;;;;;;;;;;;;1449801;41;7004;-64
2021/07/23 05:43:17;;;;;;;;;;;;;;;;;;1449866;41;7124;-64
2021/07/23 05:44:19;;;;;;;;;;;;;;;;;;1450216;41;7008;-66
2021/07/23 05:45:22;;;;;;;;;;;;;;;;;;1450307;41;7004;-65
2021/07/23 05:46:26;;;;;;;;;;;;;;;;;;1450306;41;7009;-64
2021/07/23 05:47:28;;;;;;;;;;;;;;;;;;1450471;41;7271;-64
2021/07/23 05:48:31;;;;;;;;;;;;;;;;;;1450310;41;7272;-64
2021/07/23 05:49:34;;;;;;;;;;;;;;;;;;1445172;41;7114;-65
2021/07/23 05:50:36;;;;;;;;;;;;;;;;;;1445815;41;7017;-64
2021/07/23 05:51:38;;;;;;;;;;;;;;;;;;1450070;41;7021;-65
2021/07/23 05:52:41;;;;;;;;;;;;;;;;;;1450033;40;7024;-65
2021/07/23 05:53:43;;;;;;;;;;;;;;;;;;1450451;41;7000;-64
2021/07/23 05:54:46;;;;;;;;;;;;;;;;;;1450753;41;7008;-64
2021/07/23 05:55:48;;;;;;;;;;;;;;;;;;1450611;41;7064;-64
2021/07/23 05:56:50;;;;;;;;;;;;;;;;;;1450730;41;7019;-64
2021/07/23 05:57:57;;;;;;;;;;;;;;;;;;1450628;41;7017;-64
2021/07/23 05:59:00;;;;;;;;;;;;;;;;;;1450526;41;7000;-65
2021/07/23 06:00:05;;;;;;;;;;;;;;;;;;1450864;41;7000;-64
2021/07/23 06:01:08;;;;;;;;;;;;;;;;;;1450684;41;7229;-65
2021/07/23 06:02:11;;;;;;;;;;;;;;;;;;1450755;41;7035;-64
2021/07/23 06:03:13;;;;;;;;;;;;;;;;;;1451179;41;7016;-65
2021/07/23 06:04:16;;;;;;;;;;;;;;;;;;1450977;41;7000;-64
2021/07/23 06:05:18;;;;;;;;;;;;;;;;;;1450702;41;7009;-66
2021/07/23 06:06:24;;;;;;;;;;;;;;;;;;1449935;41;7001;-64
2021/07/23 06:07:42;;;;;;;;;;;;;;;;;;1450892;41;7035;-64
2021/07/23 06:08:44;;;;;;;;;;;;;;;;;;1450686;41;7028;-64
2021/07/23 06:09:47;;;;;;;;;;;;;;;;;;1450652;41;7013;-65
2021/07/23 06:10:49;;;;;;;;;;;;;;;;;;1450808;41;7017;-64
2021/07/23 06:11:52;;;;;;;;;;;;;;;;;;1450944;41;7044;-65
2021/07/23 06:12:54;;;;;;;;;;;;;;;;;;1450413;41;7032;-64
2021/07/23 06:13:56;;;;;;;;;;;;;;;;;;1449481;41;7226;-64
2021/07/23 06:14:59;;;;;;;;;;;;;;;;;;1450635;41;7004;-66
2021/07/23 06:16:02;;;;;;;;;;;;;;;;;;1450652;41;7004;-64
2021/07/23 06:17:05;;;;;;;;;;;;;;;;;;1450762;41;7980;-64
2021/07/23 06:18:07;;;;;;;;;;;;;;;;;;1450919;41;7001;-65
2021/07/23 06:19:10;;;;;;;;;;;;;;;;;;1450784;41;7929;-65
2021/07/23 06:20:12;;;;;;;;;;;;;;;;;;1450603;41;7038;-65
2021/07/23 06:21:15;;;;;;;;;;;;;;;;;;1450335;41;7178;-64
2021/07/23 06:22:19;;;;;;;;;;;;;;;;;;1450174;41;7031;-65
2021/07/23 06:23:21;;;;;;;;;;;;;;;;;;1450454;41;7925;-64
2021/07/23 06:24:24;;;;;;;;;;;;;;;;;;1450617;41;7008;-64
2021/07/23 06:25:26;;;;;;;;;;;;;;;;;;1450581;41;7012;-65
2021/07/23 06:26:29;;;;;;;;;;;;;;;;;;1449612;41;7039;-65
2021/07/23 06:27:31;;;;;;;;;;;;;;;;;;1449616;41;7882;-65
2021/07/23 06:28:34;;;;;;;;;;;;;;;;;;1449792;41;7005;-64
2021/07/23 06:29:36;;;;;;;;;;;;;;;;;;1449895;41;7000;-64
2021/07/23 06:30:40;;;;;;;;;;;;;;;;;;1450198;41;7000;-64
2021/07/23 06:31:42;;;;;;;;;;;;;;;;;;1450037;41;7068;-64
2021/07/23 06:32:45;;;;;;;;;;;;;;;;;;1450070;41;7012;-64
2021/07/23 06:33:47;;;;;;;;;;;;;;;;;;1450369;41;7057;-65
2021/07/23 06:34:49;;;;;;;;;;;;;;;;;;1450546;41;7936;-64
2021/07/23 06:35:52;;;;;;;;;;;;;;;;;;1450188;41;7173;-65
2021/07/23 06:36:54;;;;;;;;;;;;;;;;;;1450303;41;7925;-65
2021/07/23 06:37:57;;;;;;;;;;;;;;;;;;1450715;41;7482;-64
2021/07/23 06:39:00;;;;;;;;;;;;;;;;;;1450925;41;6996;-64
2021/07/23 06:40:02;;;;;;;;;;;;;;;;;;1450393;41;7000;-64
2021/07/23 06:41:06;;;;;;;;;;;;;;;;;;1450262;41;7016;-65
2021/07/23 06:42:08;;;;;;;;;;;;;;;;;;1450682;41;7000;-65
2021/07/23 06:43:11;;;;;;;;;;;;;;;;;;1450348;41;7040;-65
2021/07/23 06:44:13;;;;;;;;;;;;;;;;;;1450835;41;7000;-65
2021/07/23 06:45:15;;;;;;;;;;;;;;;;;;1450800;41;7000;-65
2021/07/23 06:46:18;;;;;;;;;;;;;;;;;;1450870;41;7036;-65
2021/07/23 06:47:21;;;;;;;;;;;;;;;;;;1450773;41;7052;-64
2021/07/23 06:48:23;;;;;;;;;;;;;;;;;;1450489;41;7873;-64
2021/07/23 06:49:26;;;;;;;;;;;;;;;;;;1450656;41;7027;-64
2021/07/23 06:50:31;;;;;;;;;;;;;;;;;;1450709;41;7080;-65
2021/07/23 06:51:33;;;;;;;;;;;;;;;;;;1450574;41;7008;-64
2021/07/23 06:52:36;;;;;;;;;;;;;;;;;;1450956;41;7900;-64
2021/07/23 06:53:40;;;;;;;;;;;;;;;;;;1450707;41;7178;-65
2021/07/23 06:54:42;;;;;;;;;;;;;;;;;;1450848;41;7028;-65
2021/07/23 06:55:45;;;;;;;;;;;;;;;;;;1450598;41;7037;-64
2021/07/23 06:56:51;;;;;;;;;;;;;;;;;;1450060;41;6996;-64
2021/07/23 06:57:53;;;;;;;;;;;;;;;;;;1450770;41;6996;-65
2021/07/23 06:58:56;;;;;;;;;;;;;;;;;;1450530;41;7008;-65
2021/07/23 06:59:58;;;;;;;;;;;;;;;;;;1450526;41;7080;-64
2021/07/23 07:01:05;;;;;;;;;;;;;;;;;;1450349;41;7004;-64
2021/07/23 07:02:07;;;;;;;;;;;;;;;;;;1450582;41;7008;-64
2021/07/23 07:03:10;;;;;;;;;;;;;;;;;;1450433;41;7201;-65
2021/07/23 07:04:12;;;;;;;;;;;;;;;;;;1450216;40;7060;-65
2021/07/23 07:05:14;;;;;;;;;;;;;;;;;;1449947;41;7013;-65
2021/07/23 07:06:17;;;;;;;;;;;;;;;;;;1450587;41;7017;-65
2021/07/23 07:07:19;;;;;;;;;;;;;;;;;;1450284;41;7023;-65
2021/07/23 07:08:22;;;;;;;;;;;;;;;;;;1450636;41;7016;-65
2021/07/23 07:09:25;;;;;;;;;;;;;;;;;;1450468;41;7031;-64
2021/07/23 07:10:28;;;;;;;;;;;;;;;;;;1450651;41;7009;-65
2021/07/23 07:11:31;;;;;;;;;;;;;;;;;;1450360;41;7012;-65
2021/07/23 07:12:34;;;;;;;;;;;;;;;;;;1450479;41;7117;-65
2021/07/23 07:13:36;;;;;;;;;;;;;;;;;;1450141;41;7301;-65
2021/07/23 07:14:42;;;;;;;;;;;;;;;;;;1450946;41;7024;-64
2021/07/23 07:15:44;;;;;;;;;;;;;;;;;;1450598;41;8438;-64
2021/07/23 07:16:47;;;;;;;;;;;;;;;;;;1450284;41;7043;-65